sensor_id;sensor_type;location;lat;lon;timestamp;temperature;humidity
7876;DHT22;69649;53.712;9.680;2024-01-25T00:01:14;6.10;76.60
7876;DHT22;69649;53.712;9.680;2024-01-25T00:03:40;6.00;76.70
7876;DHT22;69649;53.712;9.680;2024-01-25T00:06:06;6.00;76.70
7876;DHT22;69649;53.712;9.680;2024-01-25T00:11:01;6.00;76.80
7876;DHT22;69649;53.712;9.680;2024-01-25T00:13:28;6.00;76.90
7876;DHT22;69649;53.712;9.680;2024-01-25T00:15:55;6.00;76.90
7876;DHT22;69649;53.712;9.680;2024-01-25T00:18:21;6.00;76.90
7876;DHT22;69649;53.712;9.680;2024-01-25T00:20:47;6.00;76.80
7876;DHT22;69649;53.712;9.680;2024-01-25T00:23:13;6.00;76.80
7876;DHT22;69649;53.712;9.680;2024-01-25T00:25:38;6.00;76.70
7876;DHT22;69649;53.712;9.680;2024-01-25T00:28:04;6.00;76.70
7876;DHT22;69649;53.712;9.680;2024-01-25T00:30:30;6.00;76.90
7876;DHT22;69649;53.712;9.680;2024-01-25T00:32:57;6.00;76.90
7876;DHT22;69649;53.712;9.680;2024-01-25T00:35:24;6.00;76.80
7876;DHT22;69649;53.712;9.680;2024-01-25T00:37:50;6.00;76.80
7876;DHT22;69649;53.712;9.680;2024-01-25T00:40:17;6.00;77.00
7876;DHT22;69649;53.712;9.680;2024-01-25T00:42:45;6.10;76.80
7876;DHT22;69649;53.712;9.680;2024-01-25T00:45:13;6.00;76.90
7876;DHT22;69649;53.712;9.680;2024-01-25T00:47:40;6.10;76.80
7876;DHT22;69649;53.712;9.680;2024-01-25T00:50:06;6.10;76.70
7876;DHT22;69649;53.712;9.680;2024-01-25T00:52:33;6.10;76.60
7876;DHT22;69649;53.712;9.680;2024-01-25T00:54:59;6.10;76.60
7876;DHT22;69649;53.712;9.680;2024-01-25T00:57:25;6.10;76.60
7876;DHT22;69649;53.712;9.680;2024-01-25T00:59:52;6.10;76.60
7876;DHT22;69649;53.712;9.680;2024-01-25T01:02:20;6.10;76.50
7876;DHT22;69649;53.712;9.680;2024-01-25T01:04:47;6.10;76.40
7876;DHT22;69649;53.712;9.680;2024-01-25T01:07:14;6.10;76.60
7876;DHT22;69649;53.712;9.680;2024-01-25T01:09:40;6.10;76.50
7876;DHT22;69649;53.712;9.680;2024-01-25T01:12:06;6.10;76.40
7876;DHT22;69649;53.712;9.680;2024-01-25T01:14:32;6.10;76.40
7876;DHT22;69649;53.712;9.680;2024-01-25T01:16:59;6.10;76.40
7876;DHT22;69649;53.712;9.680;2024-01-25T01:19:24;6.00;76.50
7876;DHT22;69649;53.712;9.680;2024-01-25T01:21:50;6.00;76.60
7876;DHT22;69649;53.712;9.680;2024-01-25T01:24:16;6.00;76.50
7876;DHT22;69649;53.712;9.680;2024-01-25T01:26:41;6.00;76.40
7876;DHT22;69649;53.712;9.680;2024-01-25T01:29:08;6.00;76.50
7876;DHT22;69649;53.712;9.680;2024-01-25T01:31:34;6.00;76.60
7876;DHT22;69649;53.712;9.680;2024-01-25T01:33:59;6.00;76.60
7876;DHT22;69649;53.712;9.680;2024-01-25T01:36:26;6.00;76.50
7876;DHT22;69649;53.712;9.680;2024-01-25T01:38:52;6.00;76.40
7876;DHT22;69649;53.712;9.680;2024-01-25T01:41:18;6.00;76.50
7876;DHT22;69649;53.712;9.680;2024-01-25T01:43:43;6.00;76.40
7876;DHT22;69649;53.712;9.680;2024-01-25T01:46:12;6.10;76.40
7876;DHT22;69649;53.712;9.680;2024-01-25T01:48:39;6.10;76.30
7876;DHT22;69649;53.712;9.680;2024-01-25T01:51:06;6.10;76.40
7876;DHT22;69649;53.712;9.680;2024-01-25T01:53:33;6.10;76.40
7876;DHT22;69649;53.712;9.680;2024-01-25T01:55:59;6.10;76.40
7876;DHT22;69649;53.712;9.680;2024-01-25T01:58:26;6.10;76.40
7876;DHT22;69649;53.712;9.680;2024-01-25T02:00:53;6.00;76.50
7876;DHT22;69649;53.712;9.680;2024-01-25T02:03:19;6.00;76.60
7876;DHT22;69649;53.712;9.680;2024-01-25T02:05:45;6.10;76.60
7876;DHT22;69649;53.712;9.680;2024-01-25T02:08:12;6.10;76.60
7876;DHT22;69649;53.712;9.680;2024-01-25T02:10:38;6.10;76.60
7876;DHT22;69649;53.712;9.680;2024-01-25T02:13:04;6.10;76.60
7876;DHT22;69649;53.712;9.680;2024-01-25T02:15:30;6.10;76.80
7876;DHT22;69649;53.712;9.680;2024-01-25T02:17:56;6.10;76.80
7876;DHT22;69649;53.712;9.680;2024-01-25T02:20:22;6.10;76.80
7876;DHT22;69649;53.712;9.680;2024-01-25T02:22:48;6.10;76.90
7876;DHT22;69649;53.712;9.680;2024-01-25T02:25:14;6.10;77.00
7876;DHT22;69649;53.712;9.680;2024-01-25T02:27:40;6.10;77.10
7876;DHT22;69649;53.712;9.680;2024-01-25T02:30:07;6.10;77.20
7876;DHT22;69649;53.712;9.680;2024-01-25T02:32:33;6.10;77.20
7876;DHT22;69649;53.712;9.680;2024-01-25T02:34:59;6.10;77.20
7876;DHT22;69649;53.712;9.680;2024-01-25T02:37:26;6.00;77.40
7876;DHT22;69649;53.712;9.680;2024-01-25T02:39:52;6.10;77.20
7876;DHT22;69649;53.712;9.680;2024-01-25T02:42:18;6.00;77.40
7876;DHT22;69649;53.712;9.680;2024-01-25T02:44:44;6.00;77.50
7876;DHT22;69649;53.712;9.680;2024-01-25T02:47:10;6.10;77.50
7876;DHT22;69649;53.712;9.680;2024-01-25T02:49:36;6.00;77.60
7876;DHT22;69649;53.712;9.680;2024-01-25T02:52:02;6.10;77.50
7876;DHT22;69649;53.712;9.680;2024-01-25T02:54:29;6.10;77.40
7876;DHT22;69649;53.712;9.680;2024-01-25T02:56:54;6.10;77.50
7876;DHT22;69649;53.712;9.680;2024-01-25T02:59:20;6.20;77.30
7876;DHT22;69649;53.712;9.680;2024-01-25T03:01:47;6.20;77.30
7876;DHT22;69649;53.712;9.680;2024-01-25T03:04:13;6.20;77.20
7876;DHT22;69649;53.712;9.680;2024-01-25T03:06:39;6.20;77.20
7876;DHT22;69649;53.712;9.680;2024-01-25T03:09:25;6.20;77.20
7876;DHT22;69649;53.712;9.680;2024-01-25T03:11:51;6.20;77.30
7876;DHT22;69649;53.712;9.680;2024-01-25T03:14:17;6.20;77.20
7876;DHT22;69649;53.712;9.680;2024-01-25T03:16:42;6.20;77.10
7876;DHT22;69649;53.712;9.680;2024-01-25T03:19:10;6.30;77.10
7876;DHT22;69649;53.712;9.680;2024-01-25T03:21:36;6.20;77.00
7876;DHT22;69649;53.712;9.680;2024-01-25T03:24:02;6.20;77.10
7876;DHT22;69649;53.712;9.680;2024-01-25T03:26:28;6.20;77.00
7876;DHT22;69649;53.712;9.680;2024-01-25T03:28:54;6.20;77.10
7876;DHT22;69649;53.712;9.680;2024-01-25T03:31:20;6.20;77.10
7876;DHT22;69649;53.712;9.680;2024-01-25T03:33:45;6.10;77.10
7876;DHT22;69649;53.712;9.680;2024-01-25T03:36:13;6.10;77.30
7876;DHT22;69649;53.712;9.680;2024-01-25T03:38:40;6.20;77.30
7876;DHT22;69649;53.712;9.680;2024-01-25T03:41:05;6.10;77.40
7876;DHT22;69649;53.712;9.680;2024-01-25T03:43:31;6.10;77.40
7876;DHT22;69649;53.712;9.680;2024-01-25T03:45:57;6.20;77.30
7876;DHT22;69649;53.712;9.680;2024-01-25T03:48:22;6.10;77.40
7876;DHT22;69649;53.712;9.680;2024-01-25T03:50:48;6.20;77.50
7876;DHT22;69649;53.712;9.680;2024-01-25T03:53:14;6.20;77.50
7876;DHT22;69649;53.712;9.680;2024-01-25T03:55:41;6.20;77.40
7876;DHT22;69649;53.712;9.680;2024-01-25T03:58:07;6.20;77.30
7876;DHT22;69649;53.712;9.680;2024-01-25T04:00:32;6.30;77.40
7876;DHT22;69649;53.712;9.680;2024-01-25T04:03:01;6.30;77.30
7876;DHT22;69649;53.712;9.680;2024-01-25T04:05:26;6.30;77.30
7876;DHT22;69649;53.712;9.680;2024-01-25T04:07:52;6.30;77.30
7876;DHT22;69649;53.712;9.680;2024-01-25T04:10:18;6.30;77.20
7876;DHT22;69649;53.712;9.680;2024-01-25T04:12:44;6.20;77.20
7876;DHT22;69649;53.712;9.680;2024-01-25T04:15:10;6.30;77.20
7876;DHT22;69649;53.712;9.680;2024-01-25T04:17:36;6.20;77.20
7876;DHT22;69649;53.712;9.680;2024-01-25T04:20:01;6.20;77.30
7876;DHT22;69649;53.712;9.680;2024-01-25T04:22:28;6.20;77.30
7876;DHT22;69649;53.712;9.680;2024-01-25T04:24:54;6.20;77.20
7876;DHT22;69649;53.712;9.680;2024-01-25T04:27:19;6.10;77.30
7876;DHT22;69649;53.712;9.680;2024-01-25T04:29:45;6.10;77.50
7876;DHT22;69649;53.712;9.680;2024-01-25T04:32:12;6.00;77.70
7876;DHT22;69649;53.712;9.680;2024-01-25T04:34:38;6.00;77.80
7876;DHT22;69649;53.712;9.680;2024-01-25T04:37:03;6.00;77.80
7876;DHT22;69649;53.712;9.680;2024-01-25T04:39:29;5.90;77.90
7876;DHT22;69649;53.712;9.680;2024-01-25T04:41:55;5.90;78.00
7876;DHT22;69649;53.712;9.680;2024-01-25T04:44:21;5.90;78.00
7876;DHT22;69649;53.712;9.680;2024-01-25T04:46:46;5.90;77.90
7876;DHT22;69649;53.712;9.680;2024-01-25T04:49:12;5.80;78.10
7876;DHT22;69649;53.712;9.680;2024-01-25T04:51:38;5.80;78.20
7876;DHT22;69649;53.712;9.680;2024-01-25T04:54:04;5.80;78.30
7876;DHT22;69649;53.712;9.680;2024-01-25T04:56:29;5.80;78.40
7876;DHT22;69649;53.712;9.680;2024-01-25T04:59:15;5.80;78.40
7876;DHT22;69649;53.712;9.680;2024-01-25T05:01:41;5.70;78.40
7876;DHT22;69649;53.712;9.680;2024-01-25T05:04:06;5.70;78.40
7876;DHT22;69649;53.712;9.680;2024-01-25T05:06:32;5.70;78.60
7876;DHT22;69649;53.712;9.680;2024-01-25T05:08:58;5.70;78.70
7876;DHT22;69649;53.712;9.680;2024-01-25T05:11:23;5.70;78.60
7876;DHT22;69649;53.712;9.680;2024-01-25T05:13:49;5.60;78.70
7876;DHT22;69649;53.712;9.680;2024-01-25T05:16:15;5.60;78.80
7876;DHT22;69649;53.712;9.680;2024-01-25T05:18:41;5.60;78.90
7876;DHT22;69649;53.712;9.680;2024-01-25T05:21:06;5.60;78.70
7876;DHT22;69649;53.712;9.680;2024-01-25T05:23:32;5.60;78.90
7876;DHT22;69649;53.712;9.680;2024-01-25T05:25:58;5.60;78.90
7876;DHT22;69649;53.712;9.680;2024-01-25T05:28:24;5.50;79.00
7876;DHT22;69649;53.712;9.680;2024-01-25T05:30:50;5.50;79.10
7876;DHT22;69649;53.712;9.680;2024-01-25T05:33:16;5.50;79.10
7876;DHT22;69649;53.712;9.680;2024-01-25T05:35:42;5.50;79.20
7876;DHT22;69649;53.712;9.680;2024-01-25T05:38:08;5.50;79.20
7876;DHT22;69649;53.712;9.680;2024-01-25T05:40:33;5.50;79.30
7876;DHT22;69649;53.712;9.680;2024-01-25T05:42:59;5.50;79.40
7876;DHT22;69649;53.712;9.680;2024-01-25T05:45:26;5.50;79.40
7876;DHT22;69649;53.712;9.680;2024-01-25T05:47:52;5.50;79.40
7876;DHT22;69649;53.712;9.680;2024-01-25T05:50:37;5.50;79.60
7876;DHT22;69649;53.712;9.680;2024-01-25T05:53:03;5.50;79.60
7876;DHT22;69649;53.712;9.680;2024-01-25T05:55:29;5.50;79.70
7876;DHT22;69649;53.712;9.680;2024-01-25T05:57:54;5.50;79.70
7876;DHT22;69649;53.712;9.680;2024-01-25T06:00:20;5.50;79.70
7876;DHT22;69649;53.712;9.680;2024-01-25T06:02:46;5.70;80.20
7876;DHT22;69649;53.712;9.680;2024-01-25T06:05:12;5.60;79.40
7876;DHT22;69649;53.712;9.680;2024-01-25T06:07:37;5.60;79.40
7876;DHT22;69649;53.712;9.680;2024-01-25T06:10:03;5.60;79.60
7876;DHT22;69649;53.712;9.680;2024-01-25T06:12:29;5.50;79.50
7876;DHT22;69649;53.712;9.680;2024-01-25T06:14:55;5.50;79.70
7876;DHT22;69649;53.712;9.680;2024-01-25T06:17:21;5.50;79.70
7876;DHT22;69649;53.712;9.680;2024-01-25T06:22:06;5.50;79.60
7876;DHT22;69649;53.712;9.680;2024-01-25T06:24:32;5.40;79.80
7876;DHT22;69649;53.712;9.680;2024-01-25T06:26:58;5.40;79.80
7876;DHT22;69649;53.712;9.680;2024-01-25T06:29:24;5.30;80.00
7876;DHT22;69649;53.712;9.680;2024-01-25T06:31:49;5.30;79.90
7876;DHT22;69649;53.712;9.680;2024-01-25T06:34:15;5.30;79.90
7876;DHT22;69649;53.712;9.680;2024-01-25T06:36:41;5.30;79.90
7876;DHT22;69649;53.712;9.680;2024-01-25T06:39:07;5.30;80.20
7876;DHT22;69649;53.712;9.680;2024-01-25T06:44:20;5.30;80.10
7876;DHT22;69649;53.712;9.680;2024-01-25T06:47:06;5.30;80.00
7876;DHT22;69649;53.712;9.680;2024-01-25T06:49:31;5.30;80.10
7876;DHT22;69649;53.712;9.680;2024-01-25T06:51:57;5.20;80.20
7876;DHT22;69649;53.712;9.680;2024-01-25T06:54:23;5.10;80.20
7876;DHT22;69649;53.712;9.680;2024-01-25T06:56:48;5.10;80.40
7876;DHT22;69649;53.712;9.680;2024-01-25T06:59:16;5.10;80.40
7876;DHT22;69649;53.712;9.680;2024-01-25T07:01:42;5.10;80.50
7876;DHT22;69649;53.712;9.680;2024-01-25T07:04:08;5.10;80.70
7876;DHT22;69649;53.712;9.680;2024-01-25T07:06:34;5.10;80.80
7876;DHT22;69649;53.712;9.680;2024-01-25T07:08:59;5.10;80.80
7876;DHT22;69649;53.712;9.680;2024-01-25T07:11:25;5.20;80.80
7876;DHT22;69649;53.712;9.680;2024-01-25T07:13:51;5.20;80.70
7876;DHT22;69649;53.712;9.680;2024-01-25T07:16:17;5.30;80.80
7876;DHT22;69649;53.712;9.680;2024-01-25T07:18:44;5.30;80.80
7876;DHT22;69649;53.712;9.680;2024-01-25T07:21:10;5.30;80.80
7876;DHT22;69649;53.712;9.680;2024-01-25T07:23:36;5.30;80.80
7876;DHT22;69649;53.712;9.680;2024-01-25T07:26:02;5.40;80.70
7876;DHT22;69649;53.712;9.680;2024-01-25T07:28:28;5.50;80.80
7876;DHT22;69649;53.712;9.680;2024-01-25T07:30:53;5.50;80.60
7876;DHT22;69649;53.712;9.680;2024-01-25T07:33:19;5.50;80.60
7876;DHT22;69649;53.712;9.680;2024-01-25T07:35:45;5.50;80.50
7876;DHT22;69649;53.712;9.680;2024-01-25T07:38:12;5.60;80.50
7876;DHT22;69649;53.712;9.680;2024-01-25T07:40:37;5.60;80.30
7876;DHT22;69649;53.712;9.680;2024-01-25T07:43:03;5.80;80.50
7876;DHT22;69649;53.712;9.680;2024-01-25T07:45:30;5.80;80.00
7876;DHT22;69649;53.712;9.680;2024-01-25T07:47:56;5.80;79.90
7876;DHT22;69649;53.712;9.680;2024-01-25T07:50:22;5.80;79.80
7876;DHT22;69649;53.712;9.680;2024-01-25T07:52:47;5.80;79.70
7876;DHT22;69649;53.712;9.680;2024-01-25T07:55:16;5.80;79.70
7876;DHT22;69649;53.712;9.680;2024-01-25T07:57:41;5.80;79.60
7876;DHT22;69649;53.712;9.680;2024-01-25T08:00:08;5.90;79.60
7876;DHT22;69649;53.712;9.680;2024-01-25T08:02:37;5.90;79.40
7876;DHT22;69649;53.712;9.680;2024-01-25T08:05:08;6.00;79.20
7876;DHT22;69649;53.712;9.680;2024-01-25T08:07:35;6.00;79.00
7876;DHT22;69649;53.712;9.680;2024-01-25T08:10:03;5.90;79.30
7876;DHT22;69649;53.712;9.680;2024-01-25T08:12:30;5.90;79.30
7876;DHT22;69649;53.712;9.680;2024-01-25T08:14:56;5.90;79.30
7876;DHT22;69649;53.712;9.680;2024-01-25T08:17:21;6.00;79.40
7876;DHT22;69649;53.712;9.680;2024-01-25T08:19:47;6.00;79.20
7876;DHT22;69649;53.712;9.680;2024-01-25T08:22:13;6.00;79.20
7876;DHT22;69649;53.712;9.680;2024-01-25T08:24:59;6.00;79.10
7876;DHT22;69649;53.712;9.680;2024-01-25T08:27:25;6.00;79.20
7876;DHT22;69649;53.712;9.680;2024-01-25T08:29:50;6.00;79.40
7876;DHT22;69649;53.712;9.680;2024-01-25T08:32:16;6.10;79.30
7876;DHT22;69649;53.712;9.680;2024-01-25T08:34:42;6.10;79.20
7876;DHT22;69649;53.712;9.680;2024-01-25T08:37:08;6.10;79.20
7876;DHT22;69649;53.712;9.680;2024-01-25T08:39:36;6.10;79.00
7876;DHT22;69649;53.712;9.680;2024-01-25T08:44:41;6.10;79.10
7876;DHT22;69649;53.712;9.680;2024-01-25T08:47:09;6.20;79.20
7876;DHT22;69649;53.712;9.680;2024-01-25T08:49:37;6.20;79.10
7876;DHT22;69649;53.712;9.680;2024-01-25T08:52:04;6.20;79.00
7876;DHT22;69649;53.712;9.680;2024-01-25T08:54:31;6.30;79.00
7876;DHT22;69649;53.712;9.680;2024-01-25T08:56:56;6.30;78.90
7876;DHT22;69649;53.712;9.680;2024-01-25T08:59:22;6.30;78.80
7876;DHT22;69649;53.712;9.680;2024-01-25T09:01:48;6.30;78.80
7876;DHT22;69649;53.712;9.680;2024-01-25T09:04:14;6.30;78.80
7876;DHT22;69649;53.712;9.680;2024-01-25T09:06:39;6.40;78.80
7876;DHT22;69649;53.712;9.680;2024-01-25T09:09:05;6.40;78.80
7876;DHT22;69649;53.712;9.680;2024-01-25T09:11:31;6.40;78.50
7876;DHT22;69649;53.712;9.680;2024-01-25T09:13:57;6.40;78.70
7876;DHT22;69649;53.712;9.680;2024-01-25T09:16:23;6.40;78.90
7876;DHT22;69649;53.712;9.680;2024-01-25T09:18:48;6.40;78.80
7876;DHT22;69649;53.712;9.680;2024-01-25T09:21:34;6.40;78.90
7876;DHT22;69649;53.712;9.680;2024-01-25T09:24:00;6.40;78.70
7876;DHT22;69649;53.712;9.680;2024-01-25T09:26:26;6.50;78.70
7876;DHT22;69649;53.712;9.680;2024-01-25T09:28:52;6.50;78.60
7876;DHT22;69649;53.712;9.680;2024-01-25T09:31:18;6.50;78.60
7876;DHT22;69649;53.712;9.680;2024-01-25T09:33:43;6.50;78.60
7876;DHT22;69649;53.712;9.680;2024-01-25T09:36:09;6.60;78.60
7876;DHT22;69649;53.712;9.680;2024-01-25T09:38:35;6.50;78.50
7876;DHT22;69649;53.712;9.680;2024-01-25T09:41:01;6.50;78.50
7876;DHT22;69649;53.712;9.680;2024-01-25T09:43:27;6.60;78.50
7876;DHT22;69649;53.712;9.680;2024-01-25T09:45:53;6.60;78.40
7876;DHT22;69649;53.712;9.680;2024-01-25T09:48:23;6.60;78.40
7876;DHT22;69649;53.712;9.680;2024-01-25T09:50:48;6.60;78.30
7876;DHT22;69649;53.712;9.680;2024-01-25T09:53:21;6.70;78.20
7876;DHT22;69649;53.712;9.680;2024-01-25T09:55:46;6.60;78.00
7876;DHT22;69649;53.712;9.680;2024-01-25T09:58:13;6.60;78.10
7876;DHT22;69649;53.712;9.680;2024-01-25T10:00:39;6.60;78.00
7876;DHT22;69649;53.712;9.680;2024-01-25T10:03:06;6.60;78.00
7876;DHT22;69649;53.712;9.680;2024-01-25T10:05:32;6.60;77.90
7876;DHT22;69649;53.712;9.680;2024-01-25T10:07:57;6.70;77.90
7876;DHT22;69649;53.712;9.680;2024-01-25T10:10:27;6.70;77.80
7876;DHT22;69649;53.712;9.680;2024-01-25T10:12:54;6.80;77.60
7876;DHT22;69649;53.712;9.680;2024-01-25T10:15:20;6.80;77.60
7876;DHT22;69649;53.712;9.680;2024-01-25T10:17:46;6.80;77.60
7876;DHT22;69649;53.712;9.680;2024-01-25T10:20:14;6.80;77.50
7876;DHT22;69649;53.712;9.680;2024-01-25T10:22:40;6.80;77.50
7876;DHT22;69649;53.712;9.680;2024-01-25T10:25:13;6.80;77.70
7876;DHT22;69649;53.712;9.680;2024-01-25T10:27:42;6.80;77.60
7876;DHT22;69649;53.712;9.680;2024-01-25T10:30:09;6.80;77.70
7876;DHT22;69649;53.712;9.680;2024-01-25T10:32:35;6.90;77.50
7876;DHT22;69649;53.712;9.680;2024-01-25T10:35:02;6.90;77.50
7876;DHT22;69649;53.712;9.680;2024-01-25T10:37:28;6.90;77.20
7876;DHT22;69649;53.712;9.680;2024-01-25T10:39:55;6.90;77.10
7876;DHT22;69649;53.712;9.680;2024-01-25T10:42:21;6.90;77.00
7876;DHT22;69649;53.712;9.680;2024-01-25T10:44:47;7.00;76.90
7876;DHT22;69649;53.712;9.680;2024-01-25T10:47:13;7.00;76.90
7876;DHT22;69649;53.712;9.680;2024-01-25T10:49:40;7.00;76.80
7876;DHT22;69649;53.712;9.680;2024-01-25T10:52:07;7.00;77.00
7876;DHT22;69649;53.712;9.680;2024-01-25T10:54:33;7.00;77.10
7876;DHT22;69649;53.712;9.680;2024-01-25T10:57:01;7.00;77.00
7876;DHT22;69649;53.712;9.680;2024-01-25T10:59:29;7.00;77.00
7876;DHT22;69649;53.712;9.680;2024-01-25T11:01:56;7.00;77.00
7876;DHT22;69649;53.712;9.680;2024-01-25T11:04:22;7.00;77.00
7876;DHT22;69649;53.712;9.680;2024-01-25T11:06:49;7.00;77.10
7876;DHT22;69649;53.712;9.680;2024-01-25T11:12:12;7.00;77.20
7876;DHT22;69649;53.712;9.680;2024-01-25T11:14:39;7.00;76.80
7876;DHT22;69649;53.712;9.680;2024-01-25T11:17:15;7.00;76.90
7876;DHT22;69649;53.712;9.680;2024-01-25T11:19:44;7.00;76.80
7876;DHT22;69649;53.712;9.680;2024-01-25T11:22:11;7.10;76.90
7876;DHT22;69649;53.712;9.680;2024-01-25T11:24:38;7.10;76.80
7876;DHT22;69649;53.712;9.680;2024-01-25T11:27:05;7.00;76.80
7876;DHT22;69649;53.712;9.680;2024-01-25T11:29:32;7.10;76.80
7876;DHT22;69649;53.712;9.680;2024-01-25T11:31:58;7.20;76.60
7876;DHT22;69649;53.712;9.680;2024-01-25T11:34:24;7.20;76.40
7876;DHT22;69649;53.712;9.680;2024-01-25T11:36:50;7.20;76.50
7876;DHT22;69649;53.712;9.680;2024-01-25T11:39:16;7.20;76.50
7876;DHT22;69649;53.712;9.680;2024-01-25T11:41:44;7.20;76.50
7876;DHT22;69649;53.712;9.680;2024-01-25T11:44:11;7.20;76.40
7876;DHT22;69649;53.712;9.680;2024-01-25T11:46:36;7.10;76.30
7876;DHT22;69649;53.712;9.680;2024-01-25T11:49:02;7.10;76.60
7876;DHT22;69649;53.712;9.680;2024-01-25T11:51:28;7.20;76.50
7876;DHT22;69649;53.712;9.680;2024-01-25T11:53:54;7.20;76.50
7876;DHT22;69649;53.712;9.680;2024-01-25T11:56:31;7.20;76.50
7876;DHT22;69649;53.712;9.680;2024-01-25T11:58:58;7.20;76.30
7876;DHT22;69649;53.712;9.680;2024-01-25T12:01:25;7.40;76.20
7876;DHT22;69649;53.712;9.680;2024-01-25T12:03:51;7.40;76.10
7876;DHT22;69649;53.712;9.680;2024-01-25T12:06:18;7.40;76.20
7876;DHT22;69649;53.712;9.680;2024-01-25T12:08:44;7.40;76.30
7876;DHT22;69649;53.712;9.680;2024-01-25T12:11:10;7.30;76.40
7876;DHT22;69649;53.712;9.680;2024-01-25T12:13:42;7.30;76.40
7876;DHT22;69649;53.712;9.680;2024-01-25T12:16:09;7.20;76.40
7876;DHT22;69649;53.712;9.680;2024-01-25T12:18:36;7.30;76.50
7876;DHT22;69649;53.712;9.680;2024-01-25T12:21:04;7.20;76.20
7876;DHT22;69649;53.712;9.680;2024-01-25T12:26:21;7.10;76.40
7876;DHT22;69649;53.712;9.680;2024-01-25T12:28:46;7.20;76.60
7876;DHT22;69649;53.712;9.680;2024-01-25T12:31:14;7.20;76.30
7876;DHT22;69649;53.712;9.680;2024-01-25T12:33:41;7.20;76.50
7876;DHT22;69649;53.712;9.680;2024-01-25T12:36:07;7.20;76.50
7876;DHT22;69649;53.712;9.680;2024-01-25T12:38:33;7.20;76.50
7876;DHT22;69649;53.712;9.680;2024-01-25T12:41:01;7.20;76.50
7876;DHT22;69649;53.712;9.680;2024-01-25T12:43:28;7.20;76.50
7876;DHT22;69649;53.712;9.680;2024-01-25T12:45:54;7.20;76.60
7876;DHT22;69649;53.712;9.680;2024-01-25T12:48:20;7.20;76.60
7876;DHT22;69649;53.712;9.680;2024-01-25T12:50:46;7.30;76.50
7876;DHT22;69649;53.712;9.680;2024-01-25T12:53:13;7.20;76.20
7876;DHT22;69649;53.712;9.680;2024-01-25T12:55:39;7.20;76.10
7876;DHT22;69649;53.712;9.680;2024-01-25T12:58:06;7.20;76.20
7876;DHT22;69649;53.712;9.680;2024-01-25T13:00:31;7.20;76.20
7876;DHT22;69649;53.712;9.680;2024-01-25T13:02:58;7.20;76.20
7876;DHT22;69649;53.712;9.680;2024-01-25T13:05:24;7.20;76.30
7876;DHT22;69649;53.712;9.680;2024-01-25T13:07:50;7.20;76.30
7876;DHT22;69649;53.712;9.680;2024-01-25T13:10:16;7.20;76.30
7876;DHT22;69649;53.712;9.680;2024-01-25T13:12:41;7.20;76.40
7876;DHT22;69649;53.712;9.680;2024-01-25T13:15:08;7.20;76.70
7876;DHT22;69649;53.712;9.680;2024-01-25T13:17:34;7.20;76.80
7876;DHT22;69649;53.712;9.680;2024-01-25T13:20:01;7.30;76.60
7876;DHT22;69649;53.712;9.680;2024-01-25T13:22:28;7.30;76.50
7876;DHT22;69649;53.712;9.680;2024-01-25T13:24:55;7.40;76.10
7876;DHT22;69649;53.712;9.680;2024-01-25T13:27:21;7.60;77.90
7876;DHT22;69649;53.712;9.680;2024-01-25T13:29:47;7.60;75.90
7876;DHT22;69649;53.712;9.680;2024-01-25T13:32:13;7.60;75.70
7876;DHT22;69649;53.712;9.680;2024-01-25T13:34:38;7.50;75.50
7876;DHT22;69649;53.712;9.680;2024-01-25T13:37:04;7.60;75.80
7876;DHT22;69649;53.712;9.680;2024-01-25T13:39:30;7.60;75.30
7876;DHT22;69649;53.712;9.680;2024-01-25T13:41:56;7.60;75.50
7876;DHT22;69649;53.712;9.680;2024-01-25T13:44:24;7.70;75.10
7876;DHT22;69649;53.712;9.680;2024-01-25T13:46:50;7.70;75.00
7876;DHT22;69649;53.712;9.680;2024-01-25T13:49:16;7.60;75.20
7876;DHT22;69649;53.712;9.680;2024-01-25T13:51:44;7.70;75.20
7876;DHT22;69649;53.712;9.680;2024-01-25T13:54:10;7.80;75.00
7876;DHT22;69649;53.712;9.680;2024-01-25T13:56:36;7.80;74.80
7876;DHT22;69649;53.712;9.680;2024-01-25T13:59:01;7.80;74.70
7876;DHT22;69649;53.712;9.680;2024-01-25T14:01:27;7.80;74.20
7876;DHT22;69649;53.712;9.680;2024-01-25T14:03:53;8.40;79.30
7876;DHT22;69649;53.712;9.680;2024-01-25T14:06:19;8.50;73.20
7876;DHT22;69649;53.712;9.680;2024-01-25T14:08:44;8.40;72.20
7876;DHT22;69649;53.712;9.680;2024-01-25T14:11:10;8.20;72.30
7876;DHT22;69649;53.712;9.680;2024-01-25T14:13:36;8.00;72.80
7876;DHT22;69649;53.712;9.680;2024-01-25T14:16:02;8.00;73.20
7876;DHT22;69649;53.712;9.680;2024-01-25T14:18:28;8.00;73.30
7876;DHT22;69649;53.712;9.680;2024-01-25T14:20:55;8.10;73.30
7876;DHT22;69649;53.712;9.680;2024-01-25T14:23:21;8.40;73.20
7876;DHT22;69649;53.712;9.680;2024-01-25T14:25:46;8.60;72.70
7876;DHT22;69649;53.712;9.680;2024-01-25T14:28:12;9.00;71.50
7876;DHT22;69649;53.712;9.680;2024-01-25T14:30:38;9.20;70.10
7876;DHT22;69649;53.712;9.680;2024-01-25T14:33:04;9.20;69.30
7876;DHT22;69649;53.712;9.680;2024-01-25T14:35:29;9.00;69.20
7876;DHT22;69649;53.712;9.680;2024-01-25T14:37:56;8.80;69.10
7876;DHT22;69649;53.712;9.680;2024-01-25T14:40:24;8.60;69.50
7876;DHT22;69649;53.712;9.680;2024-01-25T14:42:50;8.60;69.60
7876;DHT22;69649;53.712;9.680;2024-01-25T14:45:16;8.50;69.90
7876;DHT22;69649;53.712;9.680;2024-01-25T14:47:42;8.50;69.80
7876;DHT22;69649;53.712;9.680;2024-01-25T14:50:08;8.40;70.20
7876;DHT22;69649;53.712;9.680;2024-01-25T14:52:33;8.40;70.40
7876;DHT22;69649;53.712;9.680;2024-01-25T14:55:03;8.30;70.60
7876;DHT22;69649;53.712;9.680;2024-01-25T14:57:30;8.20;70.80
7876;DHT22;69649;53.712;9.680;2024-01-25T14:59:56;8.10;70.90
7876;DHT22;69649;53.712;9.680;2024-01-25T15:02:21;8.10;71.10
7876;DHT22;69649;53.712;9.680;2024-01-25T15:04:47;8.00;71.50
7876;DHT22;69649;53.712;9.680;2024-01-25T15:07:13;8.00;71.60
7876;DHT22;69649;53.712;9.680;2024-01-25T15:09:40;7.80;71.80
7876;DHT22;69649;53.712;9.680;2024-01-25T15:12:07;8.00;71.50
7876;DHT22;69649;53.712;9.680;2024-01-25T15:14:33;7.90;71.50
7876;DHT22;69649;53.712;9.680;2024-01-25T15:16:58;7.90;71.20
7876;DHT22;69649;53.712;9.680;2024-01-25T15:19:24;7.80;71.50
7876;DHT22;69649;53.712;9.680;2024-01-25T15:21:50;7.60;71.80
7876;DHT22;69649;53.712;9.680;2024-01-25T15:24:16;7.50;71.90
7876;DHT22;69649;53.712;9.680;2024-01-25T15:26:42;7.50;72.20
7876;DHT22;69649;53.712;9.680;2024-01-25T15:29:08;7.50;72.50
7876;DHT22;69649;53.712;9.680;2024-01-25T15:31:34;7.50;72.50
7876;DHT22;69649;53.712;9.680;2024-01-25T15:34:00;7.40;72.80
7876;DHT22;69649;53.712;9.680;2024-01-25T15:36:26;7.40;72.90
7876;DHT22;69649;53.712;9.680;2024-01-25T15:38:52;7.50;72.90
7876;DHT22;69649;53.712;9.680;2024-01-25T15:41:17;7.40;72.80
7876;DHT22;69649;53.712;9.680;2024-01-25T15:43:45;7.40;73.00
7876;DHT22;69649;53.712;9.680;2024-01-25T15:46:11;7.30;73.00
7876;DHT22;69649;53.712;9.680;2024-01-25T15:48:37;7.20;73.30
7876;DHT22;69649;53.712;9.680;2024-01-25T15:51:03;7.20;73.40
7876;DHT22;69649;53.712;9.680;2024-01-25T15:53:28;7.20;73.60
7876;DHT22;69649;53.712;9.680;2024-01-25T15:55:54;7.20;73.80
7876;DHT22;69649;53.712;9.680;2024-01-25T15:58:21;7.20;73.80
7876;DHT22;69649;53.712;9.680;2024-01-25T16:00:46;7.20;73.90
7876;DHT22;69649;53.712;9.680;2024-01-25T16:03:12;7.20;73.60
7876;DHT22;69649;53.712;9.680;2024-01-25T16:05:38;7.20;73.50
7876;DHT22;69649;53.712;9.680;2024-01-25T16:08:04;7.20;73.50
7876;DHT22;69649;53.712;9.680;2024-01-25T16:10:30;7.20;73.70
7876;DHT22;69649;53.712;9.680;2024-01-25T16:12:55;7.20;73.90